sensor_id;sensor_type;location;lat;lon;timestamp;pressure;altitude;pressure_sealevel;temperature;humidity
5238;BME280;2639;49.700;7.962;2022-08-01T03:19:09;98847.59;;;19.89;83.56
5238;BME280;2639;49.700;7.962;2022-08-01T03:22:23;98853.13;;;19.76;83.44
5238;BME280;2639;49.700;7.962;2022-08-01T03:25:36;98849.19;;;19.65;84.35
5238;BME280;2639;49.700;7.962;2022-08-01T03:28:48;98852.00;;;19.48;85.58
5238;BME280;2639;49.700;7.962;2022-08-01T03:32:01;98848.63;;;19.30;86.13
5238;BME280;2639;49.700;7.962;2022-08-01T03:35:13;98851.22;;;19.30;86.77
5238;BME280;2639;49.700;7.962;2022-08-01T03:38:25;98852.94;;;19.29;87.07
5238;BME280;2639;49.700;7.962;2022-08-01T03:41:40;98854.66;;;19.29;86.95
5238;BME280;2639;49.700;7.962;2022-08-01T03:44:54;98862.53;;;19.30;86.83
5238;BME280;2639;49.700;7.962;2022-08-01T03:48:09;98864.94;;;19.26;86.67
5238;BME280;2639;49.700;7.962;2022-08-01T03:51:22;98862.09;;;19.20;86.72
5238;BME280;2639;49.700;7.962;2022-08-01T03:54:36;98854.97;;;19.16;86.43
5238;BME280;2639;49.700;7.962;2022-08-01T03:57:48;98860.63;;;19.05;87.39
5238;BME280;2639;49.700;7.962;2022-08-01T04:00:58;98853.09;;;18.92;87.85
5238;BME280;2639;49.700;7.962;2022-08-01T04:04:09;98854.22;;;18.78;89.21
5238;BME280;2639;49.700;7.962;2022-08-01T04:07:26;98855.63;;;18.71;89.21
5238;BME280;2639;49.700;7.962;2022-08-01T04:10:37;98857.06;;;18.64;90.06
5238;BME280;2639;49.700;7.962;2022-08-01T04:13:47;98858.41;;;18.56;90.31
5238;BME280;2639;49.700;7.962;2022-08-01T04:16:58;98857.19;;;18.48;91.43
5238;BME280;2639;49.700;7.962;2022-08-01T04:20:10;98861.44;;;18.46;91.94
5238;BME280;2639;49.700;7.962;2022-08-01T04:23:24;98869.81;;;18.40;92.41
5238;BME280;2639;49.700;7.962;2022-08-01T04:26:37;98872.50;;;18.42;92.69
5238;BME280;2639;49.700;7.962;2022-08-01T04:29:49;98866.50;;;18.43;92.06
5238;BME280;2639;49.700;7.962;2022-08-01T04:33:04;98883.75;;;18.41;92.56
5238;BME280;2639;49.700;7.962;2022-08-01T04:36:18;98887.13;;;18.40;93.72
5238;BME280;2639;49.700;7.962;2022-08-01T04:39:31;98882.53;;;18.52;93.26
5238;BME280;2639;49.700;7.962;2022-08-01T04:42:59;98881.00;;;18.57;92.58
5238;BME280;2639;49.700;7.962;2022-08-01T04:46:10;98892.44;;;18.61;92.48
5238;BME280;2639;49.700;7.962;2022-08-01T04:49:21;98891.53;;;18.60;92.00
5238;BME280;2639;49.700;7.962;2022-08-01T04:52:33;98894.97;;;18.59;92.49
5238;BME280;2639;49.700;7.962;2022-08-01T04:55:45;98897.28;;;18.72;91.94
5238;BME280;2639;49.700;7.962;2022-08-01T04:58:56;98893.69;;;18.88;92.27
5238;BME280;2639;49.700;7.962;2022-08-01T05:59:21;98903.00;;;21.73;80.03
5238;BME280;2639;49.700;7.962;2022-08-01T06:02:32;98896.53;;;21.89;78.96
5238;BME280;2639;49.700;7.962;2022-08-01T06:05:42;98903.03;;;22.02;76.36
5238;BME280;2639;49.700;7.962;2022-08-01T06:08:52;98898.88;;;22.09;76.87
5238;BME280;2639;49.700;7.962;2022-08-01T06:12:03;98905.34;;;22.20;76.92
5238;BME280;2639;49.700;7.962;2022-08-01T06:15:15;98903.69;;;22.22;75.94
5238;BME280;2639;49.700;7.962;2022-08-01T06:18:25;98907.53;;;22.33;76.40
5238;BME280;2639;49.700;7.962;2022-08-01T06:21:36;98913.31;;;22.52;75.78
5238;BME280;2639;49.700;7.962;2022-08-01T06:24:46;98913.47;;;22.58;73.77
5238;BME280;2639;49.700;7.962;2022-08-01T06:27:57;98922.28;;;22.60;74.68
5238;BME280;2639;49.700;7.962;2022-08-01T06:31:08;98922.38;;;22.63;73.35
5238;BME280;2639;49.700;7.962;2022-08-01T06:34:21;98918.91;;;22.64;74.48
5238;BME280;2639;49.700;7.962;2022-08-01T06:37:32;98924.41;;;22.73;74.17
5238;BME280;2639;49.700;7.962;2022-08-01T06:40:42;98930.72;;;22.80;73.45
5238;BME280;2639;49.700;7.962;2022-08-01T06:43:52;98927.38;;;22.85;73.56
5238;BME280;2639;49.700;7.962;2022-08-01T06:47:04;98929.16;;;22.86;73.61
5238;BME280;2639;49.700;7.962;2022-08-01T06:50:14;98934.66;;;22.96;74.30
5238;BME280;2639;49.700;7.962;2022-08-01T06:53:24;98937.44;;;23.00;71.68
5238;BME280;2639;49.700;7.962;2022-08-01T06:56:34;98932.06;;;22.96;73.52
5238;BME280;2639;49.700;7.962;2022-08-01T06:59:45;98932.41;;;23.08;73.73
5238;BME280;2639;49.700;7.962;2022-08-01T07:03:03;98928.25;;;23.15;72.32
5238;BME280;2639;49.700;7.962;2022-08-01T07:06:14;98925.75;;;23.19;72.46
5238;BME280;2639;49.700;7.962;2022-08-01T07:09:24;98928.63;;;23.30;70.95
5238;BME280;2639;49.700;7.962;2022-08-01T07:12:34;98926.56;;;23.50;70.82
5238;BME280;2639;49.700;7.962;2022-08-01T07:15:46;98922.72;;;23.70;69.76
5238;BME280;2639;49.700;7.962;2022-08-01T07:18:58;98913.53;;;23.88;70.36
5238;BME280;2639;49.700;7.962;2022-08-01T07:22:08;98929.72;;;23.71;68.86
5238;BME280;2639;49.700;7.962;2022-08-01T07:25:18;98933.91;;;23.65;69.71
5238;BME280;2639;49.700;7.962;2022-08-01T07:28:29;98923.03;;;23.83;69.75
5238;BME280;2639;49.700;7.962;2022-08-01T07:31:39;98927.34;;;23.81;68.76
5238;BME280;2639;49.700;7.962;2022-08-01T07:34:51;98916.06;;;23.83;69.09
5238;BME280;2639;49.700;7.962;2022-08-01T07:38:02;98914.34;;;23.84;68.34
5238;BME280;2639;49.700;7.962;2022-08-01T07:41:12;98911.19;;;23.99;68.16
5238;BME280;2639;49.700;7.962;2022-08-01T07:44:22;98912.38;;;24.11;67.34
5238;BME280;2639;49.700;7.962;2022-08-01T07:47:36;98914.97;;;24.10;67.22
5238;BME280;2639;49.700;7.962;2022-08-01T07:50:48;98907.84;;;24.06;67.45
5238;BME280;2639;49.700;7.962;2022-08-01T07:53:58;98908.75;;;24.06;67.25
5238;BME280;2639;49.700;7.962;2022-08-01T07:57:09;98912.44;;;24.14;67.96
5238;BME280;2639;49.700;7.962;2022-08-01T08:00:20;98906.94;;;24.43;67.89
5238;BME280;2639;49.700;7.962;2022-08-01T08:03:30;98907.13;;;24.90;66.04
5238;BME280;2639;49.700;7.962;2022-08-01T08:06:41;98908.50;;;25.17;65.29
5238;BME280;2639;49.700;7.962;2022-08-01T08:09:53;98905.16;;;25.24;64.08
5238;BME280;2639;49.700;7.962;2022-08-01T08:13:03;98910.91;;;25.06;64.25
5238;BME280;2639;49.700;7.962;2022-08-01T08:16:14;98912.00;;;25.16;63.93
5238;BME280;2639;49.700;7.962;2022-08-01T08:19:24;98915.31;;;25.53;63.70
5238;BME280;2639;49.700;7.962;2022-08-01T08:22:48;98913.56;;;26.05;61.44
5238;BME280;2639;49.700;7.962;2022-08-01T08:25:59;98909.66;;;26.38;60.45
5238;BME280;2639;49.700;7.962;2022-08-01T08:29:10;98913.38;;;26.52;60.41
5238;BME280;2639;49.700;7.962;2022-08-01T08:32:20;98921.94;;;26.36;59.77
5238;BME280;2639;49.700;7.962;2022-08-01T08:35:30;98915.13;;;25.91;61.25
5238;BME280;2639;49.700;7.962;2022-08-01T08:39:02;98902.03;;;25.97;61.35
5238;BME280;2639;49.700;7.962;2022-08-01T08:42:13;98905.34;;;26.43;60.33
5238;BME280;2639;49.700;7.962;2022-08-01T08:45:23;98904.25;;;26.91;58.70
5238;BME280;2639;49.700;7.962;2022-08-01T08:48:55;98896.03;;;27.43;57.28
5238;BME280;2639;49.700;7.962;2022-08-01T08:52:06;98887.66;;;27.85;56.71
5238;BME280;2639;49.700;7.962;2022-08-01T08:55:20;98895.09;;;28.49;54.83
5238;BME280;2639;49.700;7.962;2022-08-01T08:58:32;98889.13;;;28.98;53.32
5238;BME280;2639;49.700;7.962;2022-08-01T09:10:21;98882.25;;;29.92;50.90
5238;BME280;2639;49.700;7.962;2022-08-01T09:13:31;98878.66;;;30.21;50.38
5238;BME280;2639;49.700;7.962;2022-08-01T09:16:43;98880.50;;;29.88;50.35
5238;BME280;2639;49.700;7.962;2022-08-01T09:19:57;98885.81;;;29.76;51.20
5238;BME280;2639;49.700;7.962;2022-08-01T09:23:30;98885.75;;;29.48;51.36
5238;BME280;2639;49.700;7.962;2022-08-01T09:26:42;98891.69;;;28.69;53.16
5238;BME280;2639;49.700;7.962;2022-08-01T09:29:54;98897.53;;;28.14;54.85
5238;BME280;2639;49.700;7.962;2022-08-01T09:33:09;98899.69;;;27.56;55.85
5238;BME280;2639;49.700;7.962;2022-08-01T09:36:45;98892.75;;;27.70;55.52
5238;BME280;2639;49.700;7.962;2022-08-01T09:40:39;98894.50;;;27.68;56.11
5238;BME280;2639;49.700;7.962;2022-08-01T09:43:55;98903.47;;;27.01;56.75
5238;BME280;2639;49.700;7.962;2022-08-01T09:47:06;98897.53;;;26.49;57.93
5238;BME280;2639;49.700;7.962;2022-08-01T09:50:18;98903.09;;;26.68;59.76
5238;BME280;2639;49.700;7.962;2022-08-01T09:53:40;98885.63;;;27.58;57.57
5238;BME280;2639;49.700;7.962;2022-08-01T09:57:09;98886.44;;;28.78;54.36
5238;BME280;2639;49.700;7.962;2022-08-01T10:00:22;98876.94;;;29.51;51.78
5238;BME280;2639;49.700;7.962;2022-08-01T10:04:09;98873.44;;;29.69;50.61
5238;BME280;2639;49.700;7.962;2022-08-01T10:07:23;98877.81;;;29.41;51.34
5238;BME280;2639;49.700;7.962;2022-08-01T10:11:07;98878.66;;;29.13;52.12
5238;BME280;2639;49.700;7.962;2022-08-01T10:14:21;98883.72;;;28.55;52.54
5238;BME280;2639;49.700;7.962;2022-08-01T10:17:38;98871.94;;;28.05;53.43
5238;BME280;2639;49.700;7.962;2022-08-01T10:21:00;98865.00;;;28.24;52.72
5238;BME280;2639;49.700;7.962;2022-08-01T10:24:18;98861.78;;;28.81;51.30
5238;BME280;2639;49.700;7.962;2022-08-01T10:27:32;98867.22;;;29.34;51.50
5238;BME280;2639;49.700;7.962;2022-08-01T10:30:48;98858.44;;;29.82;48.29
5238;BME280;2639;49.700;7.962;2022-08-01T10:34:01;98861.00;;;30.23;46.53
5238;BME280;2639;49.700;7.962;2022-08-01T10:37:14;98857.38;;;30.58;46.15
5238;BME280;2639;49.700;7.962;2022-08-01T10:40:26;98851.81;;;31.16;45.04
5238;BME280;2639;49.700;7.962;2022-08-01T10:43:39;98848.09;;;31.45;44.63
5238;BME280;2639;49.700;7.962;2022-08-01T10:46:59;98850.09;;;31.06;44.40
5238;BME280;2639;49.700;7.962;2022-08-01T10:50:24;98853.75;;;30.90;44.30
5238;BME280;2639;49.700;7.962;2022-08-01T10:53:46;98844.69;;;31.24;45.39
5238;BME280;2639;49.700;7.962;2022-08-01T10:56:59;98840.97;;;31.50;44.29
5238;BME280;2639;49.700;7.962;2022-08-01T11:00:16;98837.28;;;31.68;44.08
5238;BME280;2639;49.700;7.962;2022-08-01T11:03:34;98831.28;;;31.48;44.29
5238;BME280;2639;49.700;7.962;2022-08-01T11:07:07;98836.88;;;31.00;45.01
5238;BME280;2639;49.700;7.962;2022-08-01T11:10:25;98833.41;;;30.90;44.88
5238;BME280;2639;49.700;7.962;2022-08-01T11:14:00;98831.59;;;30.98;45.75
5238;BME280;2639;49.700;7.962;2022-08-01T11:17:31;98823.34;;;31.37;45.26
5238;BME280;2639;49.700;7.962;2022-08-01T11:20:55;98816.75;;;31.87;43.35
5238;BME280;2639;49.700;7.962;2022-08-01T11:28:21;98810.03;;;31.46;44.62
5238;BME280;2639;49.700;7.962;2022-08-01T11:31:43;98806.72;;;31.15;46.23
5238;BME280;2639;49.700;7.962;2022-08-01T11:34:56;98804.19;;;30.95;45.31
5238;BME280;2639;49.700;7.962;2022-08-01T11:38:22;98809.69;;;30.52;45.60
5238;BME280;2639;49.700;7.962;2022-08-01T11:41:34;98806.25;;;30.33;46.14
5238;BME280;2639;49.700;7.962;2022-08-01T11:44:51;98800.09;;;30.20;45.86
5238;BME280;2639;49.700;7.962;2022-08-01T11:48:17;98808.09;;;29.98;46.26
5238;BME280;2639;49.700;7.962;2022-08-01T11:51:28;98808.91;;;30.20;46.94
5238;BME280;2639;49.700;7.962;2022-08-01T11:54:45;98812.50;;;29.99;47.82
5238;BME280;2639;49.700;7.962;2022-08-01T11:57:59;98808.16;;;29.71;49.24
5238;BME280;2639;49.700;7.962;2022-08-01T12:01:13;98806.38;;;29.54;49.28
5238;BME280;2639;49.700;7.962;2022-08-01T12:04:24;98797.53;;;29.58;49.22
5238;BME280;2639;49.700;7.962;2022-08-01T12:07:36;98793.03;;;30.31;47.96
5238;BME280;2639;49.700;7.962;2022-08-01T12:10:50;98788.28;;;30.95;46.89
5238;BME280;2639;49.700;7.962;2022-08-01T12:14:16;98785.31;;;31.35;45.89
5238;BME280;2639;49.700;7.962;2022-08-01T12:17:32;98784.66;;;31.05;46.65
5238;BME280;2639;49.700;7.962;2022-08-01T12:20:45;98785.00;;;30.50;46.62
5238;BME280;2639;49.700;7.962;2022-08-01T12:24:05;98795.66;;;30.25;46.71
5238;BME280;2639;49.700;7.962;2022-08-01T12:27:25;98790.47;;;29.85;47.41
5238;BME280;2639;49.700;7.962;2022-08-01T12:30:36;98795.78;;;29.48;48.26
5238;BME280;2639;49.700;7.962;2022-08-01T12:33:49;98785.22;;;29.36;49.02
5238;BME280;2639;49.700;7.962;2022-08-01T12:37:00;98790.50;;;29.36;48.92
5238;BME280;2639;49.700;7.962;2022-08-01T12:40:14;98782.53;;;29.61;48.07
5238;BME280;2639;49.700;7.962;2022-08-01T12:43:25;98785.19;;;29.67;46.84
5238;BME280;2639;49.700;7.962;2022-08-01T12:46:37;98786.97;;;29.74;47.00
5238;BME280;2639;49.700;7.962;2022-08-01T12:49:53;98789.59;;;29.85;47.04
5238;BME280;2639;49.700;7.962;2022-08-01T12:53:05;98793.13;;;29.90;48.03
5238;BME280;2639;49.700;7.962;2022-08-01T12:56:16;98786.97;;;29.75;47.97
5238;BME280;2639;49.700;7.962;2022-08-01T12:59:27;98786.94;;;29.86;48.82
5238;BME280;2639;49.700;7.962;2022-08-01T13:02:39;98791.31;;;30.04;47.90
5238;BME280;2639;49.700;7.962;2022-08-01T13:05:53;98785.94;;;30.23;47.09
5238;BME280;2639;49.700;7.962;2022-08-01T13:09:05;98778.03;;;30.15;47.01
5238;BME280;2639;49.700;7.962;2022-08-01T13:12:16;98785.16;;;29.82;47.30
5238;BME280;2639;49.700;7.962;2022-08-01T13:15:29;98784.34;;;29.75;47.92
5238;BME280;2639;49.700;7.962;2022-08-01T13:18:48;98785.16;;;29.82;47.33
5238;BME280;2639;49.700;7.962;2022-08-01T13:22:00;98790.44;;;29.97;47.98
5238;BME280;2639;49.700;7.962;2022-08-01T13:25:12;98779.81;;;30.13;48.17
5238;BME280;2639;49.700;7.962;2022-08-01T13:28:28;98788.66;;;30.09;45.99
5238;BME280;2639;49.700;7.962;2022-08-01T13:31:41;98778.03;;;30.18;46.52
5238;BME280;2639;49.700;7.962;2022-08-01T13:35:00;98778.81;;;30.48;46.07
5238;BME280;2639;49.700;7.962;2022-08-01T13:38:12;98778.59;;;30.81;45.28
5238;BME280;2639;49.700;7.962;2022-08-01T13:41:23;98775.03;;;30.96;44.91
5238;BME280;2639;49.700;7.962;2022-08-01T13:44:33;98781.25;;;30.81;44.65
5238;BME280;2639;49.700;7.962;2022-08-01T13:47:45;98777.97;;;30.41;45.48
5238;BME280;2639;49.700;7.962;2022-08-01T13:51:16;98782.41;;;30.24;45.63
5238;BME280;2639;49.700;7.962;2022-08-01T13:54:32;98781.56;;;30.08;46.03
5238;BME280;2639;49.700;7.962;2022-08-01T13:57:43;98789.53;;;30.05;46.51
5238;BME280;2639;49.700;7.962;2022-08-01T14:00:54;98780.72;;;30.06;47.19
5238;BME280;2639;49.700;7.962;2022-08-01T14:04:06;98772.69;;;30.21;46.82
5238;BME280;2639;49.700;7.962;2022-08-01T14:07:16;98768.28;;;30.25;46.17
5238;BME280;2639;49.700;7.962;2022-08-01T14:10:29;98775.34;;;30.26;46.87
5238;BME280;2639;49.700;7.962;2022-08-01T14:13:40;98770.00;;;30.41;46.63
5238;BME280;2639;49.700;7.962;2022-08-01T14:16:54;98765.56;;;30.45;45.39
5238;BME280;2639;49.700;7.962;2022-08-01T14:20:05;98766.50;;;30.34;46.66
5238;BME280;2639;49.700;7.962;2022-08-01T14:23:16;98771.81;;;30.31;46.36
5238;BME280;2639;49.700;7.962;2022-08-01T14:26:28;98769.19;;;30.16;46.02
5238;BME280;2639;49.700;7.962;2022-08-01T14:29:39;98774.50;;;30.16;45.70
5238;BME280;2639;49.700;7.962;2022-08-01T14:33:10;98773.59;;;30.17;47.32
5238;BME280;2639;49.700;7.962;2022-08-01T14:36:22;98770.06;;;30.24;45.77
5238;BME280;2639;49.700;7.962;2022-08-01T14:39:39;98773.59;;;30.23;46.95
5238;BME280;2639;49.700;7.962;2022-08-01T14:43:02;98773.63;;;30.08;46.85
5238;BME280;2639;49.700;7.962;2022-08-01T14:46:33;98778.09;;;29.90;46.71
5238;BME280;2639;49.700;7.962;2022-08-01T14:49:44;98779.88;;;29.88;46.91
5238;BME280;2639;49.700;7.962;2022-08-01T14:52:55;98778.09;;;29.96;46.53
5238;BME280;2639;49.700;7.962;2022-08-01T14:56:06;98774.53;;;30.04;46.67
5238;BME280;2639;49.700;7.962;2022-08-01T14:59:18;98762.25;;;29.81;47.10
5238;BME280;2639;49.700;7.962;2022-08-01T15:02:30;98771.09;;;29.68;47.96
5238;BME280;2639;49.700;7.962;2022-08-01T15:05:40;98772.84;;;29.70;47.55
5238;BME280;2639;49.700;7.962;2022-08-01T15:08:51;98776.34;;;29.89;46.94
5238;BME280;2639;49.700;7.962;2022-08-01T15:12:02;98764.88;;;29.89;46.35
5238;BME280;2639;49.700;7.962;2022-08-01T15:15:15;98765.78;;;29.80;46.62
5238;BME280;2639;49.700;7.962;2022-08-01T15:18:26;98760.28;;;30.43;47.15
5238;BME280;2639;49.700;7.962;2022-08-01T15:21:36;98768.13;;;30.65;46.14
5238;BME280;2639;49.700;7.962;2022-08-01T15:24:51;98764.69;;;30.46;45.87
5238;BME280;2639;49.700;7.962;2022-08-01T15:28:05;98769.22;;;30.13;46.43
5238;BME280;2639;49.700;7.962;2022-08-01T15:31:18;98773.72;;;29.77;47.10
5238;BME280;2639;49.700;7.962;2022-08-01T15:34:29;98766.66;;;29.56;48.09
5238;BME280;2639;49.700;7.962;2022-08-01T15:37:41;98772.84;;;29.26;47.96
5238;BME280;2639;49.700;7.962;2022-08-01T15:40:52;98776.34;;;29.06;47.89
5238;BME280;2639;49.700;7.962;2022-08-01T15:44:02;98783.38;;;28.83;49.76
5238;BME280;2639;49.700;7.962;2022-08-01T15:47:14;98775.41;;;28.67;49.31
5238;BME280;2639;49.700;7.962;2022-08-01T15:50:25;98783.28;;;28.49;49.55
5238;BME280;2639;49.700;7.962;2022-08-01T15:53:36;98784.06;;;28.29;49.85
5238;BME280;2639;49.700;7.962;2022-08-01T15:56:47;98776.94;;;28.13;50.63
5238;BME280;2639;49.700;7.962;2022-08-01T15:59:58;98784.78;;;28.01;50.80
5238;BME280;2639;49.700;7.962;2022-08-01T16:03:10;98782.94;;;27.84;51.12
5238;BME280;2639;49.700;7.962;2022-08-01T16:06:20;98788.97;;;27.68;51.68
5238;BME280;2639;49.700;7.962;2022-08-01T16:09:31;98793.25;;;27.51;52.82
5238;BME280;2639;49.700;7.962;2022-08-01T16:12:42;98789.66;;;27.45;52.73
5238;BME280;2639;49.700;7.962;2022-08-01T16:15:53;98787.00;;;27.42;53.42
5238;BME280;2639;49.700;7.962;2022-08-01T16:19:05;98787.06;;;27.48;53.04
5238;BME280;2639;49.700;7.962;2022-08-01T16:22:16;98789.72;;;27.55;54.04
5238;BME280;2639;49.700;7.962;2022-08-01T16:25:27;98795.00;;;27.52;52.87
5238;BME280;2639;49.700;7.962;2022-08-01T16:28:38;98787.88;;;27.43;53.18
5238;BME280;2639;49.700;7.962;2022-08-01T16:31:49;98790.53;;;27.43;53.92
5238;BME280;2639;49.700;7.962;2022-08-01T16:35:20;98791.41;;;27.42;53.92
5238;BME280;2639;49.700;7.962;2022-08-01T16:38:37;98786.06;;;27.36;54.86
5238;BME280;2639;49.700;7.962;2022-08-01T16:41:48;98787.81;;;27.32;54.75
5238;BME280;2639;49.700;7.962;2022-08-01T16:45:04;98794.66;;;27.15;55.27
5238;BME280;2639;49.700;7.962;2022-08-01T16:48:23;98784.06;;;27.08;55.76
5238;BME280;2639;49.700;7.962;2022-08-01T16:51:37;98776.13;;;27.04;56.09
5238;BME280;2639;49.700;7.962;2022-08-01T16:54:56;98784.00;;;26.99;56.70
5238;BME280;2639;49.700;7.962;2022-08-01T16:58:09;98790.03;;;26.89;57.15
5238;BME280;2639;49.700;7.962;2022-08-01T17:01:20;98794.38;;;26.87;57.69
5238;BME280;2639;49.700;7.962;2022-08-01T17:04:52;98802.28;;;26.84;58.09
5238;BME280;2639;49.700;7.962;2022-08-01T17:08:05;98804.91;;;26.84;57.67
5238;BME280;2639;49.700;7.962;2022-08-01T17:11:17;98814.44;;;26.73;58.89
5238;BME280;2639;49.700;7.962;2022-08-01T17:14:28;98806.38;;;26.57;59.02
5238;BME280;2639;49.700;7.962;2022-08-01T17:17:41;98820.22;;;26.44;59.27
5238;BME280;2639;49.700;7.962;2022-08-01T17:20:52;98823.56;;;26.31;59.51
5238;BME280;2639;49.700;7.962;2022-08-01T17:24:04;98828.69;;;26.18;60.47
5238;BME280;2639;49.700;7.962;2022-08-01T17:27:16;98826.69;;;26.03;61.28
5238;BME280;2639;49.700;7.962;2022-08-01T17:30:27;98835.31;;;25.90;61.82
5238;BME280;2639;49.700;7.962;2022-08-01T17:33:37;98835.13;;;25.82;62.48
5238;BME280;2639;49.700;7.962;2022-08-01T17:36:54;98835.13;;;25.82;62.28
5238;BME280;2639;49.700;7.962;2022-08-01T17:40:07;98829.88;;;25.82;62.78
5238;BME280;2639;49.700;7.962;2022-08-01T17:43:38;98825.66;;;25.91;62.01
5238;BME280;2639;49.700;7.962;2022-08-01T17:46:49;98828.44;;;26.03;62.37
5238;BME280;2639;49.700;7.962;2022-08-01T17:50:00;98835.63;;;26.13;61.89
5238;BME280;2639;49.700;7.962;2022-08-01T17:53:13;98833.03;;;26.16;61.51
5238;BME280;2639;49.700;7.962;2022-08-01T17:56:30;98825.16;;;26.19;60.36
5238;BME280;2639;49.700;7.962;2022-08-01T17:59:47;98827.84;;;26.21;60.10
5238;BME280;2639;49.700;7.962;2022-08-01T18:02:58;98824.25;;;26.16;60.10
5238;BME280;2639;49.700;7.962;2022-08-01T18:06:10;98828.47;;;26.06;60.79
5238;BME280;2639;49.700;7.962;2022-08-01T18:09:23;98829.16;;;25.91;62.14
5238;BME280;2639;49.700;7.962;2022-08-01T18:12:36;98832.53;;;25.84;61.95
5238;BME280;2639;49.700;7.962;2022-08-01T18:15:47;98837.66;;;25.75;62.58
5238;BME280;2639;49.700;7.962;2022-08-01T18:18:58;98839.38;;;25.73;62.78
5238;BME280;2639;49.700;7.962;2022-08-01T18:22:09;98837.53;;;25.67;63.25
5238;BME280;2639;49.700;7.962;2022-08-01T18:25:40;98843.56;;;25.60;62.70
5238;BME280;2639;49.700;7.962;2022-08-01T18:28:52;98850.50;;;25.56;63.45
5238;BME280;2639;49.700;7.962;2022-08-01T18:32:06;98852.09;;;25.47;63.82
5238;BME280;2639;49.700;7.962;2022-08-01T18:35:17;98857.25;;;25.39;62.83
5238;BME280;2639;49.700;7.962;2022-08-01T18:38:29;98852.78;;;25.36;62.46
5238;BME280;2639;49.700;7.962;2022-08-01T18:41:41;98858.88;;;25.32;62.83
5238;BME280;2639;49.700;7.962;2022-08-01T18:44:53;98869.28;;;25.26;63.24
5238;BME280;2639;49.700;7.962;2022-08-01T18:48:04;98874.34;;;25.17;63.66
5238;BME280;2639;49.700;7.962;2022-08-01T18:51:15;98874.16;;;25.08;63.91
5238;BME280;2639;49.700;7.962;2022-08-01T18:54:25;98881.91;;;25.00;64.51
5238;BME280;2639;49.700;7.962;2022-08-01T18:57:36;98873.81;;;24.89;64.38
5238;BME280;2639;49.700;7.962;2022-08-01T19:00:52;98877.88;;;24.73;69.84
5238;BME280;2639;49.700;7.962;2022-08-01T19:04:03;98880.28;;;24.63;70.17
5238;BME280;2639;49.700;7.962;2022-08-01T19:07:14;98882.50;;;24.46;68.39
5238;BME280;2639;49.700;7.962;2022-08-01T19:10:45;98884.06;;;24.36;67.15
5238;BME280;2639;49.700;7.962;2022-08-01T19:13:56;98881.16;;;24.24;66.56
5238;BME280;2639;49.700;7.962;2022-08-01T19:17:08;98883.47;;;24.10;66.54
5238;BME280;2639;49.700;7.962;2022-08-01T19:20:19;98896.34;;;23.99;68.08
5238;BME280;2639;49.700;7.962;2022-08-01T19:23:29;98898.66;;;23.87;75.12
5238;BME280;2639;49.700;7.962;2022-08-01T19:26:53;98911.28;;;23.68;77.46
5238;BME280;2639;49.700;7.962;2022-08-01T19:30:05;98901.16;;;23.47;79.82
5238;BME280;2639;49.700;7.962;2022-08-01T19:33:18;98911.97;;;23.26;80.43
5238;BME280;2639;49.700;7.962;2022-08-01T19:36:29;98916.63;;;23.05;81.94
5238;BME280;2639;49.700;7.962;2022-08-01T19:39:43;98913.59;;;22.91;81.39
5238;BME280;2639;49.700;7.962;2022-08-01T19:42:55;98919.44;;;22.82;82.17
5238;BME280;2639;49.700;7.962;2022-08-01T19:46:06;98928.91;;;22.77;79.08
5238;BME280;2639;49.700;7.962;2022-08-01T19:49:27;98928.78;;;22.74;79.18
5238;BME280;2639;49.700;7.962;2022-08-01T19:52:38;98934.63;;;22.64;80.95
5238;BME280;2639;49.700;7.962;2022-08-01T19:55:50;98939.38;;;22.48;82.11
5238;BME280;2639;49.700;7.962;2022-08-01T19:59:02;98937.84;;;22.26;82.80
5238;BME280;2639;49.700;7.962;2022-08-01T20:02:17;98953.81;;;22.09;84.36
5238;BME280;2639;49.700;7.962;2022-08-01T20:05:30;98948.84;;;21.91;85.59
5238;BME280;2639;49.700;7.962;2022-08-01T20:08:41;98949.97;;;21.72;85.79
5238;BME280;2639;49.700;7.962;2022-08-01T20:11:53;98953.75;;;21.54;86.15
5238;BME280;2639;49.700;7.962;2022-08-01T20:15:04;98954.22;;;21.42;86.54
5238;BME280;2639;49.700;7.962;2022-08-01T20:18:15;98953.09;;;21.36;86.49
5238;BME280;2639;49.700;7.962;2022-08-01T20:21:27;98958.75;;;21.24;87.05
5238;BME280;2639;49.700;7.962;2022-08-01T20:24:39;98962.44;;;21.05;88.38
5238;BME280;2639;49.700;7.962;2022-08-01T20:27:53;98972.19;;;20.87;89.86
5238;BME280;2639;49.700;7.962;2022-08-01T20:31:07;98976.41;;;20.83;89.14
5238;BME280;2639;49.700;7.962;2022-08-01T20:34:21;98979.53;;;20.74;89.61
5238;BME280;2639;49.700;7.962;2022-08-01T20:37:37;98983.81;;;20.72;88.84
5238;BME280;2639;49.700;7.962;2022-08-01T20:41:09;98986.22;;;20.66;89.32
5238;BME280;2639;49.700;7.962;2022-08-01T20:44:21;98988.47;;;20.57;89.93
5238;BME280;2639;49.700;7.962;2022-08-01T20:47:31;98987.13;;;20.46;90.45
5238;BME280;2639;49.700;7.962;2022-08-01T20:50:43;99001.44;;;20.34;91.45
5238;BME280;2639;49.700;7.962;2022-08-01T20:54:06;98996.81;;;20.27;88.79
5238;BME280;2639;49.700;7.962;2022-08-01T20:57:21;98994.09;;;20.24;87.79
5238;BME280;2639;49.700;7.962;2022-08-01T21:00:33;98998.94;;;20.15;89.88
5238;BME280;2639;49.700;7.962;2022-08-01T21:03:59;99008.03;;;20.04;91.75
5238;BME280;2639;49.700;7.962;2022-08-01T21:07:21;99000.41;;;19.87;92.81
5238;BME280;2639;49.700;7.962;2022-08-01T21:10:35;98995.88;;;19.83;92.34
5238;BME280;2639;49.700;7.962;2022-08-01T21:13:46;99002.50;;;19.75;93.39
5238;BME280;2639;49.700;7.962;2022-08-01T21:17:00;99017.97;;;19.72;92.93
5238;BME280;2639;49.700;7.962;2022-08-01T21:20:15;99016.59;;;19.61;93.26
5238;BME280;2639;49.700;7.962;2022-08-01T21:23:30;99012.69;;;19.51;93.95
5238;BME280;2639;49.700;7.962;2022-08-01T21:26:49;99018.56;;;19.45;94.56
5238;BME280;2639;49.700;7.962;2022-08-01T21:30:03;99018.41;;;19.42;94.06
5238;BME280;2639;49.700;7.962;2022-08-01T21:33:16;99011.28;;;19.38;94.59
5238;BME280;2639;49.700;7.962;2022-08-01T21:36:28;99008.22;;;19.27;94.22
5238;BME280;2639;49.700;7.962;2022-08-01T21:39:43;99019.97;;;19.19;94.61
5238;BME280;2639;49.700;7.962;2022-08-01T21:42:58;99009.34;;;19.14;94.89
5238;BME280;2639;49.700;7.962;2022-08-01T21:46:12;99003.47;;;19.19;94.40
5238;BME280;2639;49.700;7.962;2022-08-01T21:49:25;99009.03;;;19.07;94.85
5238;BME280;2639;49.700;7.962;2022-08-01T21:52:42;99026.59;;;18.93;95.68
5238;BME280;2639;49.700;7.962;2022-08-01T21:55:56;99015.78;;;18.84;95.97
5238;BME280;2639;49.700;7.962;2022-08-01T21:59:38;99031.81;;;18.75;96.39
5238;BME280;2639;49.700;7.962;2022-08-01T22:03:00;99029.81;;;18.69;96.97
5238;BME280;2639;49.700;7.962;2022-08-01T22:06:15;99024.63;;;18.69;97.12